<?xml version="1.0" encoding="UTF-8" standalone="no" ?>
<gpx xmlns="http://www.topografix.com/GPX/1/1" xmlns:xsi="http://www.w3.org/2001/XMLSchema-instance" xsi:schemaLocation="http://www.topografix.com/GPX/1/1 http://www.topografix.com/GPX/1/1/gpx.xsd" version="1.1" creator="VisuGPX - https://www.visugpx.com">
  <metadata>
    <name>Marche Adeps 10 KMs Beloeil. 16 fév 2014.</name>
    <desc><![CDATA[Marche Adeps 10 KMs Beloeil. 
16 Février 2014]]></desc>
  </metadata>
  <trk>
    <name><![CDATA[Sequence 1]]></name>
    <trkseg>
      <trkpt lat="50.54664" lon="3.7374">
        <ele>63</ele>
        <time>2014-02-16T08:08:44Z</time>
      </trkpt>
      <trkpt lat="50.54665" lon="3.7372">
        <ele>62</ele>
        <time>2014-02-16T08:08:58Z</time>
      </trkpt>
      <trkpt lat="50.54664" lon="3.73706">
        <ele>62</ele>
        <time>2014-02-16T08:09:08Z</time>
      </trkpt>
      <trkpt lat="50.54658" lon="3.73701">
        <ele>62</ele>
        <time>2014-02-16T08:09:18Z</time>
      </trkpt>
      <trkpt lat="50.54643" lon="3.73702">
        <ele>62</ele>
        <time>2014-02-16T08:09:30Z</time>
      </trkpt>
      <trkpt lat="50.54633" lon="3.73705">
        <ele>62</ele>
        <time>2014-02-16T08:09:40Z</time>
      </trkpt>
      <trkpt lat="50.54619" lon="3.7371">
        <ele>62</ele>
        <time>2014-02-16T08:09:51Z</time>
      </trkpt>
      <trkpt lat="50.54606" lon="3.73718">
        <ele>62</ele>
        <time>2014-02-16T08:10:02Z</time>
      </trkpt>
      <trkpt lat="50.54592" lon="3.73725">
        <ele>62</ele>
        <time>2014-02-16T08:10:14Z</time>
      </trkpt>
      <trkpt lat="50.54576" lon="3.73735">
        <ele>62</ele>
        <time>2014-02-16T08:10:28Z</time>
      </trkpt>
      <trkpt lat="50.54567" lon="3.73744">
        <ele>62</ele>
        <time>2014-02-16T08:10:37Z</time>
      </trkpt>
      <trkpt lat="50.54554" lon="3.73756">
        <ele>63</ele>
        <time>2014-02-16T08:10:48Z</time>
      </trkpt>
      <trkpt lat="50.54544" lon="3.73759">
        <ele>63</ele>
        <time>2014-02-16T08:10:57Z</time>
      </trkpt>
      <trkpt lat="50.54532" lon="3.73768">
        <ele>63</ele>
        <time>2014-02-16T08:11:08Z</time>
      </trkpt>
      <trkpt lat="50.5452" lon="3.73777">
        <ele>63</ele>
        <time>2014-02-16T08:11:19Z</time>
      </trkpt>
      <trkpt lat="50.54505" lon="3.73773">
        <ele>63</ele>
        <time>2014-02-16T08:11:30Z</time>
      </trkpt>
      <trkpt lat="50.54494" lon="3.7377">
        <ele>62</ele>
        <time>2014-02-16T08:11:41Z</time>
      </trkpt>
      <trkpt lat="50.54481" lon="3.73766">
        <ele>62</ele>
        <time>2014-02-16T08:11:52Z</time>
      </trkpt>
      <trkpt lat="50.54465" lon="3.73763">
        <ele>63</ele>
        <time>2014-02-16T08:12:03Z</time>
      </trkpt>
      <trkpt lat="50.54449" lon="3.73761">
        <ele>62</ele>
        <time>2014-02-16T08:12:14Z</time>
      </trkpt>
      <trkpt lat="50.54434" lon="3.73759">
        <ele>62</ele>
        <time>2014-02-16T08:12:25Z</time>
      </trkpt>
      <trkpt lat="50.5442" lon="3.73755">
        <ele>62</ele>
        <time>2014-02-16T08:12:36Z</time>
      </trkpt>
      <trkpt lat="50.54405" lon="3.73754">
        <ele>62</ele>
        <time>2014-02-16T08:12:47Z</time>
      </trkpt>
      <trkpt lat="50.5439" lon="3.73752">
        <ele>62</ele>
        <time>2014-02-16T08:12:58Z</time>
      </trkpt>
      <trkpt lat="50.54374" lon="3.7375">
        <ele>62</ele>
        <time>2014-02-16T08:13:09Z</time>
      </trkpt>
      <trkpt lat="50.54364" lon="3.73741">
        <ele>61</ele>
        <time>2014-02-16T08:13:20Z</time>
      </trkpt>
      <trkpt lat="50.54343" lon="3.73739">
        <ele>61</ele>
        <time>2014-02-16T08:13:32Z</time>
      </trkpt>
      <trkpt lat="50.54329" lon="3.73737">
        <ele>61</ele>
        <time>2014-02-16T08:13:42Z</time>
      </trkpt>
      <trkpt lat="50.54312" lon="3.73736">
        <ele>61</ele>
        <time>2014-02-16T08:13:53Z</time>
      </trkpt>
      <trkpt lat="50.54297" lon="3.73733">
        <ele>60</ele>
        <time>2014-02-16T08:14:04Z</time>
      </trkpt>
      <trkpt lat="50.54284" lon="3.73731">
        <ele>60</ele>
        <time>2014-02-16T08:14:15Z</time>
      </trkpt>
      <trkpt lat="50.54275" lon="3.73733">
        <ele>61</ele>
        <time>2014-02-16T08:14:26Z</time>
      </trkpt>
      <trkpt lat="50.54262" lon="3.73737">
        <ele>61</ele>
        <time>2014-02-16T08:14:37Z</time>
      </trkpt>
      <trkpt lat="50.54251" lon="3.73745">
        <ele>61</ele>
        <time>2014-02-16T08:14:48Z</time>
      </trkpt>
      <trkpt lat="50.54241" lon="3.73735">
        <ele>60</ele>
        <time>2014-02-16T08:14:59Z</time>
      </trkpt>
      <trkpt lat="50.54227" lon="3.73718">
        <ele>60</ele>
        <time>2014-02-16T08:15:11Z</time>
      </trkpt>
      <trkpt lat="50.54215" lon="3.73702">
        <ele>60</ele>
        <time>2014-02-16T08:15:23Z</time>
      </trkpt>
      <trkpt lat="50.54203" lon="3.73696">
        <ele>59</ele>
        <time>2014-02-16T08:15:33Z</time>
      </trkpt>
      <trkpt lat="50.54186" lon="3.7369">
        <ele>59</ele>
        <time>2014-02-16T08:15:45Z</time>
      </trkpt>
      <trkpt lat="50.54172" lon="3.73685">
        <ele>59</ele>
        <time>2014-02-16T08:15:56Z</time>
      </trkpt>
      <trkpt lat="50.54153" lon="3.73677">
        <ele>59</ele>
        <time>2014-02-16T08:16:07Z</time>
      </trkpt>
      <trkpt lat="50.54135" lon="3.73672">
        <ele>60</ele>
        <time>2014-02-16T08:16:18Z</time>
      </trkpt>
      <trkpt lat="50.54123" lon="3.73659">
        <ele>60</ele>
        <time>2014-02-16T08:16:29Z</time>
      </trkpt>
      <trkpt lat="50.54112" lon="3.7365">
        <ele>60</ele>
        <time>2014-02-16T08:16:40Z</time>
      </trkpt>
      <trkpt lat="50.54101" lon="3.7365">
        <ele>61</ele>
        <time>2014-02-16T08:16:51Z</time>
      </trkpt>
      <trkpt lat="50.54083" lon="3.7365">
        <ele>61</ele>
        <time>2014-02-16T08:17:04Z</time>
      </trkpt>
      <trkpt lat="50.54059" lon="3.73652">
        <ele>60</ele>
        <time>2014-02-16T08:17:22Z</time>
      </trkpt>
      <trkpt lat="50.54053" lon="3.73651">
        <ele>60</ele>
        <time>2014-02-16T08:17:25Z</time>
      </trkpt>
      <trkpt lat="50.54034" lon="3.73653">
        <ele>59</ele>
        <time>2014-02-16T08:17:35Z</time>
      </trkpt>
      <trkpt lat="50.54016" lon="3.73654">
        <ele>58</ele>
        <time>2014-02-16T08:17:47Z</time>
      </trkpt>
      <trkpt lat="50.54002" lon="3.73653">
        <ele>58</ele>
        <time>2014-02-16T08:17:57Z</time>
      </trkpt>
      <trkpt lat="50.53986" lon="3.7365">
        <ele>57</ele>
        <time>2014-02-16T08:18:08Z</time>
      </trkpt>
      <trkpt lat="50.53972" lon="3.73649">
        <ele>57</ele>
        <time>2014-02-16T08:18:20Z</time>
      </trkpt>
      <trkpt lat="50.53956" lon="3.73647">
        <ele>57</ele>
        <time>2014-02-16T08:18:31Z</time>
      </trkpt>
      <trkpt lat="50.53941" lon="3.73642">
        <ele>57</ele>
        <time>2014-02-16T08:18:42Z</time>
      </trkpt>
      <trkpt lat="50.53926" lon="3.73641">
        <ele>57</ele>
        <time>2014-02-16T08:18:53Z</time>
      </trkpt>
      <trkpt lat="50.53909" lon="3.73642">
        <ele>58</ele>
        <time>2014-02-16T08:19:04Z</time>
      </trkpt>
      <trkpt lat="50.53894" lon="3.73639">
        <ele>58</ele>
        <time>2014-02-16T08:19:16Z</time>
      </trkpt>
      <trkpt lat="50.5388" lon="3.73638">
        <ele>58</ele>
        <time>2014-02-16T08:19:27Z</time>
      </trkpt>
      <trkpt lat="50.53862" lon="3.73635">
        <ele>58</ele>
        <time>2014-02-16T08:19:40Z</time>
      </trkpt>
      <trkpt lat="50.5385" lon="3.73634">
        <ele>58</ele>
        <time>2014-02-16T08:19:50Z</time>
      </trkpt>
      <trkpt lat="50.5383" lon="3.73632">
        <ele>60</ele>
        <time>2014-02-16T08:20:04Z</time>
      </trkpt>
      <trkpt lat="50.5382" lon="3.73631">
        <ele>60</ele>
        <time>2014-02-16T08:20:12Z</time>
      </trkpt>
      <trkpt lat="50.53795" lon="3.73626">
        <ele>61</ele>
        <time>2014-02-16T08:20:31Z</time>
      </trkpt>
      <trkpt lat="50.53787" lon="3.73623">
        <ele>61</ele>
        <time>2014-02-16T08:20:36Z</time>
      </trkpt>
      <trkpt lat="50.53773" lon="3.7362">
        <ele>61</ele>
        <time>2014-02-16T08:20:45Z</time>
      </trkpt>
      <trkpt lat="50.53757" lon="3.73614">
        <ele>61</ele>
        <time>2014-02-16T08:20:56Z</time>
      </trkpt>
      <trkpt lat="50.53726" lon="3.73603">
        <ele>64</ele>
        <time>2014-02-16T08:21:17Z</time>
      </trkpt>
      <trkpt lat="50.53715" lon="3.73596">
        <ele>64</ele>
        <time>2014-02-16T08:21:25Z</time>
      </trkpt>
      <trkpt lat="50.53709" lon="3.73593">
        <ele>64</ele>
        <time>2014-02-16T08:21:30Z</time>
      </trkpt>
      <trkpt lat="50.53696" lon="3.73589">
        <ele>64</ele>
        <time>2014-02-16T08:21:40Z</time>
      </trkpt>
      <trkpt lat="50.53679" lon="3.73588">
        <ele>65</ele>
        <time>2014-02-16T08:21:52Z</time>
      </trkpt>
      <trkpt lat="50.53664" lon="3.73589">
        <ele>65</ele>
        <time>2014-02-16T08:22:03Z</time>
      </trkpt>
      <trkpt lat="50.53651" lon="3.7359">
        <ele>65</ele>
        <time>2014-02-16T08:22:14Z</time>
      </trkpt>
      <trkpt lat="50.53635" lon="3.73588">
        <ele>65</ele>
        <time>2014-02-16T08:22:25Z</time>
      </trkpt>
      <trkpt lat="50.53622" lon="3.73587">
        <ele>65</ele>
        <time>2014-02-16T08:22:36Z</time>
      </trkpt>
      <trkpt lat="50.53612" lon="3.73585">
        <ele>65</ele>
        <time>2014-02-16T08:22:47Z</time>
      </trkpt>
      <trkpt lat="50.53596" lon="3.73581">
        <ele>65</ele>
        <time>2014-02-16T08:22:58Z</time>
      </trkpt>
      <trkpt lat="50.53571" lon="3.7358">
        <ele>65</ele>
        <time>2014-02-16T08:23:13Z</time>
      </trkpt>
      <trkpt lat="50.53561" lon="3.73577">
        <ele>64</ele>
        <time>2014-02-16T08:23:20Z</time>
      </trkpt>
      <trkpt lat="50.53545" lon="3.73573">
        <ele>64</ele>
        <time>2014-02-16T08:23:31Z</time>
      </trkpt>
      <trkpt lat="50.53528" lon="3.73569">
        <ele>63</ele>
        <time>2014-02-16T08:23:42Z</time>
      </trkpt>
      <trkpt lat="50.53513" lon="3.73562">
        <ele>63</ele>
        <time>2014-02-16T08:23:53Z</time>
      </trkpt>
      <trkpt lat="50.53498" lon="3.73561">
        <ele>61</ele>
        <time>2014-02-16T08:24:04Z</time>
      </trkpt>
      <trkpt lat="50.53485" lon="3.73558">
        <ele>61</ele>
        <time>2014-02-16T08:24:15Z</time>
      </trkpt>
      <trkpt lat="50.53474" lon="3.73555">
        <ele>61</ele>
        <time>2014-02-16T08:24:26Z</time>
      </trkpt>
      <trkpt lat="50.53463" lon="3.73553">
        <ele>60</ele>
        <time>2014-02-16T08:24:37Z</time>
      </trkpt>
      <trkpt lat="50.53427" lon="3.73552">
        <ele>59</ele>
        <time>2014-02-16T08:24:58Z</time>
      </trkpt>
      <trkpt lat="50.5342" lon="3.73551">
        <ele>59</ele>
        <time>2014-02-16T08:25:02Z</time>
      </trkpt>
      <trkpt lat="50.53405" lon="3.73547">
        <ele>58</ele>
        <time>2014-02-16T08:25:13Z</time>
      </trkpt>
      <trkpt lat="50.53392" lon="3.73544">
        <ele>58</ele>
        <time>2014-02-16T08:25:21Z</time>
      </trkpt>
      <trkpt lat="50.53378" lon="3.73542">
        <ele>58</ele>
        <time>2014-02-16T08:25:32Z</time>
      </trkpt>
      <trkpt lat="50.53363" lon="3.73537">
        <ele>58</ele>
        <time>2014-02-16T08:25:43Z</time>
      </trkpt>
      <trkpt lat="50.53346" lon="3.73538">
        <ele>58</ele>
        <time>2014-02-16T08:25:55Z</time>
      </trkpt>
      <trkpt lat="50.53321" lon="3.73532">
        <ele>58</ele>
        <time>2014-02-16T08:26:12Z</time>
      </trkpt>
      <trkpt lat="50.5331" lon="3.73528">
        <ele>58</ele>
        <time>2014-02-16T08:26:20Z</time>
      </trkpt>
      <trkpt lat="50.533" lon="3.73525">
        <ele>58</ele>
        <time>2014-02-16T08:26:28Z</time>
      </trkpt>
      <trkpt lat="50.53281" lon="3.73519">
        <ele>58</ele>
        <time>2014-02-16T08:26:43Z</time>
      </trkpt>
      <trkpt lat="50.53266" lon="3.73513">
        <ele>58</ele>
        <time>2014-02-16T08:26:54Z</time>
      </trkpt>
      <trkpt lat="50.53258" lon="3.7351">
        <ele>58</ele>
        <time>2014-02-16T08:27:01Z</time>
      </trkpt>
      <trkpt lat="50.53239" lon="3.735">
        <ele>58</ele>
        <time>2014-02-16T08:27:17Z</time>
      </trkpt>
      <trkpt lat="50.53231" lon="3.73498">
        <ele>58</ele>
        <time>2014-02-16T08:27:23Z</time>
      </trkpt>
      <trkpt lat="50.53215" lon="3.7349">
        <ele>59</ele>
        <time>2014-02-16T08:27:38Z</time>
      </trkpt>
      <trkpt lat="50.53198" lon="3.73481">
        <ele>59</ele>
        <time>2014-02-16T08:27:53Z</time>
      </trkpt>
      <trkpt lat="50.53192" lon="3.73474">
        <ele>59</ele>
        <time>2014-02-16T08:27:59Z</time>
      </trkpt>
      <trkpt lat="50.53184" lon="3.73465">
        <ele>59</ele>
        <time>2014-02-16T08:28:07Z</time>
      </trkpt>
      <trkpt lat="50.5317" lon="3.7345">
        <ele>59</ele>
        <time>2014-02-16T08:28:18Z</time>
      </trkpt>
      <trkpt lat="50.53157" lon="3.73438">
        <ele>59</ele>
        <time>2014-02-16T08:28:29Z</time>
      </trkpt>
      <trkpt lat="50.53145" lon="3.73425">
        <ele>59</ele>
        <time>2014-02-16T08:28:40Z</time>
      </trkpt>
      <trkpt lat="50.53129" lon="3.73401">
        <ele>59</ele>
        <time>2014-02-16T08:28:57Z</time>
      </trkpt>
      <trkpt lat="50.53118" lon="3.73384">
        <ele>59</ele>
        <time>2014-02-16T08:29:09Z</time>
      </trkpt>
      <trkpt lat="50.53112" lon="3.73381">
        <ele>59</ele>
        <time>2014-02-16T08:29:13Z</time>
      </trkpt>
      <trkpt lat="50.53101" lon="3.73368">
        <ele>59</ele>
        <time>2014-02-16T08:29:24Z</time>
      </trkpt>
      <trkpt lat="50.53093" lon="3.73354">
        <ele>60</ele>
        <time>2014-02-16T08:29:35Z</time>
      </trkpt>
      <trkpt lat="50.53082" lon="3.73337">
        <ele>60</ele>
        <time>2014-02-16T08:29:46Z</time>
      </trkpt>
      <trkpt lat="50.53062" lon="3.73313">
        <ele>60</ele>
        <time>2014-02-16T08:30:05Z</time>
      </trkpt>
      <trkpt lat="50.53049" lon="3.73302">
        <ele>60</ele>
        <time>2014-02-16T08:30:17Z</time>
      </trkpt>
      <trkpt lat="50.53039" lon="3.73289">
        <ele>60</ele>
        <time>2014-02-16T08:30:26Z</time>
      </trkpt>
      <trkpt lat="50.53034" lon="3.73281">
        <ele>60</ele>
        <time>2014-02-16T08:30:30Z</time>
      </trkpt>
      <trkpt lat="50.53008" lon="3.73244">
        <ele>60</ele>
        <time>2014-02-16T08:30:52Z</time>
      </trkpt>
      <trkpt lat="50.53004" lon="3.7324">
        <ele>60</ele>
        <time>2014-02-16T08:30:55Z</time>
      </trkpt>
      <trkpt lat="50.52989" lon="3.73226">
        <ele>60</ele>
        <time>2014-02-16T08:31:10Z</time>
      </trkpt>
      <trkpt lat="50.52983" lon="3.73219">
        <ele>60</ele>
        <time>2014-02-16T08:31:17Z</time>
      </trkpt>
      <trkpt lat="50.52973" lon="3.73206">
        <ele>60</ele>
        <time>2014-02-16T08:31:26Z</time>
      </trkpt>
      <trkpt lat="50.52967" lon="3.73181">
        <ele>60</ele>
        <time>2014-02-16T08:31:37Z</time>
      </trkpt>
      <trkpt lat="50.52967" lon="3.7314">
        <ele>60</ele>
        <time>2014-02-16T08:31:58Z</time>
      </trkpt>
      <trkpt lat="50.52967" lon="3.73137">
        <ele>60</ele>
        <time>2014-02-16T08:31:59Z</time>
      </trkpt>
      <trkpt lat="50.5297" lon="3.73112">
        <ele>60</ele>
        <time>2014-02-16T08:32:11Z</time>
      </trkpt>
      <trkpt lat="50.52977" lon="3.73087">
        <ele>60</ele>
        <time>2014-02-16T08:32:23Z</time>
      </trkpt>
      <trkpt lat="50.52978" lon="3.73062">
        <ele>60</ele>
        <time>2014-02-16T08:32:35Z</time>
      </trkpt>
      <trkpt lat="50.5298" lon="3.73041">
        <ele>60</ele>
        <time>2014-02-16T08:32:46Z</time>
      </trkpt>
      <trkpt lat="50.52983" lon="3.73015">
        <ele>60</ele>
        <time>2014-02-16T08:32:57Z</time>
      </trkpt>
      <trkpt lat="50.52989" lon="3.72991">
        <ele>61</ele>
        <time>2014-02-16T08:33:09Z</time>
      </trkpt>
      <trkpt lat="50.52992" lon="3.72967">
        <ele>62</ele>
        <time>2014-02-16T08:33:20Z</time>
      </trkpt>
      <trkpt lat="50.52993" lon="3.72943">
        <ele>62</ele>
        <time>2014-02-16T08:33:32Z</time>
      </trkpt>
      <trkpt lat="50.53001" lon="3.72916">
        <ele>64</ele>
        <time>2014-02-16T08:33:45Z</time>
      </trkpt>
      <trkpt lat="50.53003" lon="3.72895">
        <ele>65</ele>
        <time>2014-02-16T08:33:55Z</time>
      </trkpt>
      <trkpt lat="50.53004" lon="3.72874">
        <ele>66</ele>
        <time>2014-02-16T08:34:06Z</time>
      </trkpt>
      <trkpt lat="50.53001" lon="3.72853">
        <ele>67</ele>
        <time>2014-02-16T08:34:18Z</time>
      </trkpt>
      <trkpt lat="50.53" lon="3.72836">
        <ele>68</ele>
        <time>2014-02-16T08:34:28Z</time>
      </trkpt>
      <trkpt lat="50.52999" lon="3.72808">
        <ele>68</ele>
        <time>2014-02-16T08:34:44Z</time>
      </trkpt>
      <trkpt lat="50.52999" lon="3.72796">
        <ele>68</ele>
        <time>2014-02-16T08:34:53Z</time>
      </trkpt>
      <trkpt lat="50.53001" lon="3.72762">
        <ele>70</ele>
        <time>2014-02-16T08:35:11Z</time>
      </trkpt>
      <trkpt lat="50.52999" lon="3.72743">
        <ele>70</ele>
        <time>2014-02-16T08:35:24Z</time>
      </trkpt>
      <trkpt lat="50.52997" lon="3.7273">
        <ele>69</ele>
        <time>2014-02-16T08:35:31Z</time>
      </trkpt>
      <trkpt lat="50.52994" lon="3.72709">
        <ele>69</ele>
        <time>2014-02-16T08:35:42Z</time>
      </trkpt>
      <trkpt lat="50.52989" lon="3.72689">
        <ele>69</ele>
        <time>2014-02-16T08:35:50Z</time>
      </trkpt>
      <trkpt lat="50.52982" lon="3.72658">
        <ele>70</ele>
        <time>2014-02-16T08:36:12Z</time>
      </trkpt>
      <trkpt lat="50.52979" lon="3.72654">
        <ele>70</ele>
        <time>2014-02-16T08:36:14Z</time>
      </trkpt>
      <trkpt lat="50.52974" lon="3.72627">
        <ele>70</ele>
        <time>2014-02-16T08:36:25Z</time>
      </trkpt>
      <trkpt lat="50.52973" lon="3.72606">
        <ele>70</ele>
        <time>2014-02-16T08:36:36Z</time>
      </trkpt>
      <trkpt lat="50.52963" lon="3.72575">
        <ele>71</ele>
        <time>2014-02-16T08:36:57Z</time>
      </trkpt>
      <trkpt lat="50.52963" lon="3.72573">
        <ele>71</ele>
        <time>2014-02-16T08:36:58Z</time>
      </trkpt>
      <trkpt lat="50.52956" lon="3.72542">
        <ele>71</ele>
        <time>2014-02-16T08:37:12Z</time>
      </trkpt>
      <trkpt lat="50.52952" lon="3.72524">
        <ele>71</ele>
        <time>2014-02-16T08:37:22Z</time>
      </trkpt>
      <trkpt lat="50.52947" lon="3.72502">
        <ele>71</ele>
        <time>2014-02-16T08:37:32Z</time>
      </trkpt>
      <trkpt lat="50.52933" lon="3.7245">
        <ele>72</ele>
        <time>2014-02-16T08:37:53Z</time>
      </trkpt>
      <trkpt lat="50.52931" lon="3.72437">
        <ele>72</ele>
        <time>2014-02-16T08:37:58Z</time>
      </trkpt>
      <trkpt lat="50.52922" lon="3.72397">
        <ele>73</ele>
        <time>2014-02-16T08:38:16Z</time>
      </trkpt>
      <trkpt lat="50.5292" lon="3.72391">
        <ele>73</ele>
        <time>2014-02-16T08:38:19Z</time>
      </trkpt>
      <trkpt lat="50.52916" lon="3.7237">
        <ele>71</ele>
        <time>2014-02-16T08:38:29Z</time>
      </trkpt>
      <trkpt lat="50.52913" lon="3.72324">
        <ele>73</ele>
        <time>2014-02-16T08:38:48Z</time>
      </trkpt>
      <trkpt lat="50.52912" lon="3.7229">
        <ele>72</ele>
        <time>2014-02-16T08:39:01Z</time>
      </trkpt>
      <trkpt lat="50.52912" lon="3.72284">
        <ele>72</ele>
        <time>2014-02-16T08:39:03Z</time>
      </trkpt>
      <trkpt lat="50.52911" lon="3.72259">
        <ele>73</ele>
        <time>2014-02-16T08:39:14Z</time>
      </trkpt>
      <trkpt lat="50.52912" lon="3.72241">
        <ele>73</ele>
        <time>2014-02-16T08:39:25Z</time>
      </trkpt>
      <trkpt lat="50.52915" lon="3.72214">
        <ele>73</ele>
        <time>2014-02-16T08:39:38Z</time>
      </trkpt>
      <trkpt lat="50.52912" lon="3.72191">
        <ele>73</ele>
        <time>2014-02-16T08:39:47Z</time>
      </trkpt>
      <trkpt lat="50.52908" lon="3.72164">
        <ele>74</ele>
        <time>2014-02-16T08:39:59Z</time>
      </trkpt>
      <trkpt lat="50.52902" lon="3.72114">
        <ele>74</ele>
        <time>2014-02-16T08:40:20Z</time>
      </trkpt>
      <trkpt lat="50.52903" lon="3.72108">
        <ele>74</ele>
        <time>2014-02-16T08:40:23Z</time>
      </trkpt>
      <trkpt lat="50.52907" lon="3.7209">
        <ele>74</ele>
        <time>2014-02-16T08:40:33Z</time>
      </trkpt>
      <trkpt lat="50.52907" lon="3.72052">
        <ele>74</ele>
        <time>2014-02-16T08:40:50Z</time>
      </trkpt>
      <trkpt lat="50.52907" lon="3.72045">
        <ele>74</ele>
        <time>2014-02-16T08:40:54Z</time>
      </trkpt>
      <trkpt lat="50.52908" lon="3.72026">
        <ele>74</ele>
        <time>2014-02-16T08:41:06Z</time>
      </trkpt>
      <trkpt lat="50.52907" lon="3.72009">
        <ele>74</ele>
        <time>2014-02-16T08:41:17Z</time>
      </trkpt>
      <trkpt lat="50.52906" lon="3.71985">
        <ele>74</ele>
        <time>2014-02-16T08:41:28Z</time>
      </trkpt>
      <trkpt lat="50.52901" lon="3.71943">
        <ele>74</ele>
        <time>2014-02-16T08:41:49Z</time>
      </trkpt>
      <trkpt lat="50.52901" lon="3.71938">
        <ele>75</ele>
        <time>2014-02-16T08:41:52Z</time>
      </trkpt>
      <trkpt lat="50.52899" lon="3.71909">
        <ele>75</ele>
        <time>2014-02-16T08:42:05Z</time>
      </trkpt>
      <trkpt lat="50.52898" lon="3.71892">
        <ele>75</ele>
        <time>2014-02-16T08:42:13Z</time>
      </trkpt>
      <trkpt lat="50.52895" lon="3.71868">
        <ele>74</ele>
        <time>2014-02-16T08:42:24Z</time>
      </trkpt>
      <trkpt lat="50.52897" lon="3.71831">
        <ele>74</ele>
        <time>2014-02-16T08:42:45Z</time>
      </trkpt>
      <trkpt lat="50.52895" lon="3.71819">
        <ele>74</ele>
        <time>2014-02-16T08:42:51Z</time>
      </trkpt>
      <trkpt lat="50.52892" lon="3.71806">
        <ele>73</ele>
        <time>2014-02-16T08:42:57Z</time>
      </trkpt>
      <trkpt lat="50.52892" lon="3.71778">
        <ele>73</ele>
        <time>2014-02-16T08:43:15Z</time>
      </trkpt>
      <trkpt lat="50.52891" lon="3.71761">
        <ele>73</ele>
        <time>2014-02-16T08:43:25Z</time>
      </trkpt>
      <trkpt lat="50.5289" lon="3.71751">
        <ele>73</ele>
        <time>2014-02-16T08:43:30Z</time>
      </trkpt>
      <trkpt lat="50.52887" lon="3.7173">
        <ele>71</ele>
        <time>2014-02-16T08:43:41Z</time>
      </trkpt>
      <trkpt lat="50.52884" lon="3.71707">
        <ele>71</ele>
        <time>2014-02-16T08:43:52Z</time>
      </trkpt>
      <trkpt lat="50.52881" lon="3.71681">
        <ele>70</ele>
        <time>2014-02-16T08:44:03Z</time>
      </trkpt>
      <trkpt lat="50.52877" lon="3.71648">
        <ele>70</ele>
        <time>2014-02-16T08:44:18Z</time>
      </trkpt>
      <trkpt lat="50.52873" lon="3.71631">
        <ele>70</ele>
        <time>2014-02-16T08:44:25Z</time>
      </trkpt>
      <trkpt lat="50.52868" lon="3.71579">
        <ele>71</ele>
        <time>2014-02-16T08:44:47Z</time>
      </trkpt>
      <trkpt lat="50.52868" lon="3.71533">
        <ele>71</ele>
        <time>2014-02-16T08:45:04Z</time>
      </trkpt>
      <trkpt lat="50.52872" lon="3.71512">
        <ele>71</ele>
        <time>2014-02-16T08:45:10Z</time>
      </trkpt>
      <trkpt lat="50.52872" lon="3.71485">
        <ele>70</ele>
        <time>2014-02-16T08:45:18Z</time>
      </trkpt>
      <trkpt lat="50.52879" lon="3.71464">
        <ele>70</ele>
        <time>2014-02-16T08:45:29Z</time>
      </trkpt>
      <trkpt lat="50.52878" lon="3.71439">
        <ele>70</ele>
        <time>2014-02-16T08:45:39Z</time>
      </trkpt>
      <trkpt lat="50.5288" lon="3.71418">
        <ele>70</ele>
        <time>2014-02-16T08:45:49Z</time>
      </trkpt>
      <trkpt lat="50.52879" lon="3.71397">
        <ele>68</ele>
        <time>2014-02-16T08:46:01Z</time>
      </trkpt>
      <trkpt lat="50.52881" lon="3.71375">
        <ele>67</ele>
        <time>2014-02-16T08:46:11Z</time>
      </trkpt>
      <trkpt lat="50.52883" lon="3.71333">
        <ele>66</ele>
        <time>2014-02-16T08:46:31Z</time>
      </trkpt>
      <trkpt lat="50.52892" lon="3.71307">
        <ele>67</ele>
        <time>2014-02-16T08:46:42Z</time>
      </trkpt>
      <trkpt lat="50.52901" lon="3.71282">
        <ele>66</ele>
        <time>2014-02-16T08:46:54Z</time>
      </trkpt>
      <trkpt lat="50.52904" lon="3.71266">
        <ele>66</ele>
        <time>2014-02-16T08:47:01Z</time>
      </trkpt>
      <trkpt lat="50.52907" lon="3.71256">
        <ele>66</ele>
        <time>2014-02-16T08:47:06Z</time>
      </trkpt>
      <trkpt lat="50.52913" lon="3.71234">
        <ele>66</ele>
        <time>2014-02-16T08:47:17Z</time>
      </trkpt>
      <trkpt lat="50.52912" lon="3.71212">
        <ele>66</ele>
        <time>2014-02-16T08:47:28Z</time>
      </trkpt>
      <trkpt lat="50.52914" lon="3.71181">
        <ele>66</ele>
        <time>2014-02-16T08:47:43Z</time>
      </trkpt>
      <trkpt lat="50.52925" lon="3.71152">
        <ele>68</ele>
        <time>2014-02-16T08:48:00Z</time>
      </trkpt>
      <trkpt lat="50.52925" lon="3.7115">
        <ele>68</ele>
        <time>2014-02-16T08:48:01Z</time>
      </trkpt>
      <trkpt lat="50.52924" lon="3.71124">
        <ele>69</ele>
        <time>2014-02-16T08:48:13Z</time>
      </trkpt>
      <trkpt lat="50.52923" lon="3.71092">
        <ele>69</ele>
        <time>2014-02-16T08:48:29Z</time>
      </trkpt>
      <trkpt lat="50.52924" lon="3.7108">
        <ele>70</ele>
        <time>2014-02-16T08:48:35Z</time>
      </trkpt>
      <trkpt lat="50.52924" lon="3.7106">
        <ele>71</ele>
        <time>2014-02-16T08:48:46Z</time>
      </trkpt>
      <trkpt lat="50.52929" lon="3.71027">
        <ele>73</ele>
        <time>2014-02-16T08:48:59Z</time>
      </trkpt>
      <trkpt lat="50.52935" lon="3.71005">
        <ele>73</ele>
        <time>2014-02-16T08:49:10Z</time>
      </trkpt>
      <trkpt lat="50.52942" lon="3.70983">
        <ele>74</ele>
        <time>2014-02-16T08:49:20Z</time>
      </trkpt>
      <trkpt lat="50.52943" lon="3.70963">
        <ele>74</ele>
        <time>2014-02-16T08:49:30Z</time>
      </trkpt>
      <trkpt lat="50.52952" lon="3.70948">
        <ele>75</ele>
        <time>2014-02-16T08:49:41Z</time>
      </trkpt>
      <trkpt lat="50.52956" lon="3.70906">
        <ele>76</ele>
        <time>2014-02-16T08:49:59Z</time>
      </trkpt>
      <trkpt lat="50.52957" lon="3.70892">
        <ele>76</ele>
        <time>2014-02-16T08:50:07Z</time>
      </trkpt>
      <trkpt lat="50.52957" lon="3.70869">
        <ele>76</ele>
        <time>2014-02-16T08:50:17Z</time>
      </trkpt>
      <trkpt lat="50.52965" lon="3.70841">
        <ele>76</ele>
        <time>2014-02-16T08:50:33Z</time>
      </trkpt>
      <trkpt lat="50.52967" lon="3.70835">
        <ele>76</ele>
        <time>2014-02-16T08:50:36Z</time>
      </trkpt>
      <trkpt lat="50.52967" lon="3.70803">
        <ele>76</ele>
        <time>2014-02-16T08:50:52Z</time>
      </trkpt>
      <trkpt lat="50.52965" lon="3.70782">
        <ele>76</ele>
        <time>2014-02-16T08:51:04Z</time>
      </trkpt>
      <trkpt lat="50.52962" lon="3.70771">
        <ele>76</ele>
        <time>2014-02-16T08:51:09Z</time>
      </trkpt>
      <trkpt lat="50.5296" lon="3.70735">
        <ele>75</ele>
        <time>2014-02-16T08:51:23Z</time>
      </trkpt>
      <trkpt lat="50.52957" lon="3.70707">
        <ele>75</ele>
        <time>2014-02-16T08:51:36Z</time>
      </trkpt>
      <trkpt lat="50.52969" lon="3.70695">
        <ele>76</ele>
        <time>2014-02-16T08:51:51Z</time>
      </trkpt>
      <trkpt lat="50.52971" lon="3.707">
        <ele>76</ele>
        <time>2014-02-16T08:51:54Z</time>
      </trkpt>
      <trkpt lat="50.52979" lon="3.70718">
        <ele>76</ele>
        <time>2014-02-16T08:52:04Z</time>
      </trkpt>
      <trkpt lat="50.52992" lon="3.70731">
        <ele>77</ele>
        <time>2014-02-16T08:52:15Z</time>
      </trkpt>
      <trkpt lat="50.53003" lon="3.70752">
        <ele>78</ele>
        <time>2014-02-16T08:52:27Z</time>
      </trkpt>
      <trkpt lat="50.53014" lon="3.70756">
        <ele>77</ele>
        <time>2014-02-16T08:52:37Z</time>
      </trkpt>
      <trkpt lat="50.53027" lon="3.70773">
        <ele>77</ele>
        <time>2014-02-16T08:52:48Z</time>
      </trkpt>
      <trkpt lat="50.5305" lon="3.70797">
        <ele>76</ele>
        <time>2014-02-16T08:53:08Z</time>
      </trkpt>
      <trkpt lat="50.53061" lon="3.70817">
        <ele>76</ele>
        <time>2014-02-16T08:53:19Z</time>
      </trkpt>
      <trkpt lat="50.53063" lon="3.7082">
        <ele>76</ele>
        <time>2014-02-16T08:53:21Z</time>
      </trkpt>
      <trkpt lat="50.53078" lon="3.70835">
        <ele>74</ele>
        <time>2014-02-16T08:53:33Z</time>
      </trkpt>
      <trkpt lat="50.53092" lon="3.70851">
        <ele>73</ele>
        <time>2014-02-16T08:53:45Z</time>
      </trkpt>
      <trkpt lat="50.53108" lon="3.70869">
        <ele>73</ele>
        <time>2014-02-16T08:53:58Z</time>
      </trkpt>
      <trkpt lat="50.53118" lon="3.70877">
        <ele>73</ele>
        <time>2014-02-16T08:54:06Z</time>
      </trkpt>
      <trkpt lat="50.53127" lon="3.70892">
        <ele>73</ele>
        <time>2014-02-16T08:54:16Z</time>
      </trkpt>
      <trkpt lat="50.5314" lon="3.70901">
        <ele>72</ele>
        <time>2014-02-16T08:54:27Z</time>
      </trkpt>
      <trkpt lat="50.53153" lon="3.7092">
        <ele>71</ele>
        <time>2014-02-16T08:54:39Z</time>
      </trkpt>
      <trkpt lat="50.53165" lon="3.70934">
        <ele>71</ele>
        <time>2014-02-16T08:54:49Z</time>
      </trkpt>
      <trkpt lat="50.53178" lon="3.70952">
        <ele>70</ele>
        <time>2014-02-16T08:55:01Z</time>
      </trkpt>
      <trkpt lat="50.53192" lon="3.70966">
        <ele>70</ele>
        <time>2014-02-16T08:55:12Z</time>
      </trkpt>
      <trkpt lat="50.53202" lon="3.70978">
        <ele>69</ele>
        <time>2014-02-16T08:55:22Z</time>
      </trkpt>
      <trkpt lat="50.53215" lon="3.70991">
        <ele>69</ele>
        <time>2014-02-16T08:55:33Z</time>
      </trkpt>
      <trkpt lat="50.53236" lon="3.70997">
        <ele>69</ele>
        <time>2014-02-16T08:55:47Z</time>
      </trkpt>
      <trkpt lat="50.53245" lon="3.70995">
        <ele>68</ele>
        <time>2014-02-16T08:55:55Z</time>
      </trkpt>
      <trkpt lat="50.53251" lon="3.70972">
        <ele>69</ele>
        <time>2014-02-16T08:56:06Z</time>
      </trkpt>
      <trkpt lat="50.53257" lon="3.70947">
        <ele>70</ele>
        <time>2014-02-16T08:56:18Z</time>
      </trkpt>
      <trkpt lat="50.53259" lon="3.70932">
        <ele>71</ele>
        <time>2014-02-16T08:56:29Z</time>
      </trkpt>
      <trkpt lat="50.53269" lon="3.70899">
        <ele>72</ele>
        <time>2014-02-16T08:56:46Z</time>
      </trkpt>
      <trkpt lat="50.53284" lon="3.70866">
        <ele>72</ele>
        <time>2014-02-16T08:57:02Z</time>
      </trkpt>
      <trkpt lat="50.5329" lon="3.7085">
        <ele>72</ele>
        <time>2014-02-16T08:57:08Z</time>
      </trkpt>
      <trkpt lat="50.53296" lon="3.70832">
        <ele>72</ele>
        <time>2014-02-16T08:57:15Z</time>
      </trkpt>
      <trkpt lat="50.533" lon="3.70811">
        <ele>71</ele>
        <time>2014-02-16T08:57:25Z</time>
      </trkpt>
      <trkpt lat="50.53304" lon="3.70791">
        <ele>71</ele>
        <time>2014-02-16T08:57:36Z</time>
      </trkpt>
      <trkpt lat="50.53309" lon="3.70757">
        <ele>71</ele>
        <time>2014-02-16T08:57:53Z</time>
      </trkpt>
      <trkpt lat="50.53316" lon="3.70733">
        <ele>70</ele>
        <time>2014-02-16T08:58:05Z</time>
      </trkpt>
      <trkpt lat="50.53316" lon="3.70729">
        <ele>70</ele>
        <time>2014-02-16T08:58:09Z</time>
      </trkpt>
      <trkpt lat="50.53315" lon="3.70712">
        <ele>70</ele>
        <time>2014-02-16T08:58:21Z</time>
      </trkpt>
      <trkpt lat="50.53316" lon="3.70686">
        <ele>70</ele>
        <time>2014-02-16T08:58:32Z</time>
      </trkpt>
      <trkpt lat="50.5331" lon="3.70654">
        <ele>70</ele>
        <time>2014-02-16T08:58:46Z</time>
      </trkpt>
      <trkpt lat="50.5331" lon="3.7064">
        <ele>70</ele>
        <time>2014-02-16T08:58:54Z</time>
      </trkpt>
      <trkpt lat="50.53315" lon="3.70613">
        <ele>70</ele>
        <time>2014-02-16T08:59:08Z</time>
      </trkpt>
      <trkpt lat="50.53318" lon="3.70593">
        <ele>71</ele>
        <time>2014-02-16T08:59:18Z</time>
      </trkpt>
      <trkpt lat="50.53323" lon="3.70563">
        <ele>71</ele>
        <time>2014-02-16T08:59:30Z</time>
      </trkpt>
      <trkpt lat="50.53327" lon="3.70537">
        <ele>71</ele>
        <time>2014-02-16T08:59:42Z</time>
      </trkpt>
      <trkpt lat="50.53332" lon="3.70521">
        <ele>72</ele>
        <time>2014-02-16T08:59:50Z</time>
      </trkpt>
      <trkpt lat="50.53336" lon="3.70504">
        <ele>72</ele>
        <time>2014-02-16T09:00:00Z</time>
      </trkpt>
      <trkpt lat="50.53338" lon="3.7048">
        <ele>71</ele>
        <time>2014-02-16T09:00:12Z</time>
      </trkpt>
      <trkpt lat="50.5334" lon="3.7046">
        <ele>71</ele>
        <time>2014-02-16T09:00:22Z</time>
      </trkpt>
      <trkpt lat="50.53346" lon="3.70438">
        <ele>71</ele>
        <time>2014-02-16T09:00:33Z</time>
      </trkpt>
      <trkpt lat="50.53347" lon="3.70413">
        <ele>72</ele>
        <time>2014-02-16T09:00:45Z</time>
      </trkpt>
      <trkpt lat="50.53353" lon="3.70394">
        <ele>72</ele>
        <time>2014-02-16T09:00:56Z</time>
      </trkpt>
      <trkpt lat="50.53358" lon="3.70369">
        <ele>72</ele>
        <time>2014-02-16T09:01:08Z</time>
      </trkpt>
      <trkpt lat="50.53364" lon="3.70346">
        <ele>72</ele>
        <time>2014-02-16T09:01:17Z</time>
      </trkpt>
      <trkpt lat="50.5337" lon="3.70316">
        <ele>71</ele>
        <time>2014-02-16T09:01:32Z</time>
      </trkpt>
      <trkpt lat="50.53371" lon="3.70295">
        <ele>71</ele>
        <time>2014-02-16T09:01:41Z</time>
      </trkpt>
      <trkpt lat="50.53374" lon="3.70273">
        <ele>70</ele>
        <time>2014-02-16T09:01:53Z</time>
      </trkpt>
      <trkpt lat="50.53376" lon="3.70245">
        <ele>69</ele>
        <time>2014-02-16T09:02:06Z</time>
      </trkpt>
      <trkpt lat="50.53378" lon="3.7023">
        <ele>69</ele>
        <time>2014-02-16T09:02:15Z</time>
      </trkpt>
      <trkpt lat="50.5338" lon="3.70196">
        <ele>69</ele>
        <time>2014-02-16T09:02:29Z</time>
      </trkpt>
      <trkpt lat="50.53384" lon="3.70174">
        <ele>69</ele>
        <time>2014-02-16T09:02:39Z</time>
      </trkpt>
      <trkpt lat="50.5339" lon="3.70142">
        <ele>67</ele>
        <time>2014-02-16T09:02:53Z</time>
      </trkpt>
      <trkpt lat="50.53392" lon="3.70136">
        <ele>67</ele>
        <time>2014-02-16T09:02:57Z</time>
      </trkpt>
      <trkpt lat="50.53398" lon="3.70089">
        <ele>67</ele>
        <time>2014-02-16T09:03:16Z</time>
      </trkpt>
      <trkpt lat="50.53401" lon="3.70064">
        <ele>66</ele>
        <time>2014-02-16T09:03:28Z</time>
      </trkpt>
      <trkpt lat="50.53403" lon="3.70052">
        <ele>66</ele>
        <time>2014-02-16T09:03:33Z</time>
      </trkpt>
      <trkpt lat="50.53406" lon="3.70036">
        <ele>65</ele>
        <time>2014-02-16T09:03:40Z</time>
      </trkpt>
      <trkpt lat="50.53411" lon="3.7001">
        <ele>66</ele>
        <time>2014-02-16T09:03:52Z</time>
      </trkpt>
      <trkpt lat="50.53413" lon="3.6999">
        <ele>65</ele>
        <time>2014-02-16T09:04:02Z</time>
      </trkpt>
      <trkpt lat="50.53415" lon="3.69966">
        <ele>64</ele>
        <time>2014-02-16T09:04:13Z</time>
      </trkpt>
      <trkpt lat="50.53417" lon="3.69941">
        <ele>65</ele>
        <time>2014-02-16T09:04:24Z</time>
      </trkpt>
      <trkpt lat="50.53419" lon="3.69913">
        <ele>64</ele>
        <time>2014-02-16T09:04:35Z</time>
      </trkpt>
      <trkpt lat="50.53421" lon="3.69885">
        <ele>63</ele>
        <time>2014-02-16T09:04:47Z</time>
      </trkpt>
      <trkpt lat="50.53421" lon="3.69857">
        <ele>62</ele>
        <time>2014-02-16T09:05:00Z</time>
      </trkpt>
      <trkpt lat="50.53422" lon="3.69836">
        <ele>61</ele>
        <time>2014-02-16T09:05:10Z</time>
      </trkpt>
      <trkpt lat="50.53425" lon="3.69817">
        <ele>61</ele>
        <time>2014-02-16T09:05:20Z</time>
      </trkpt>
      <trkpt lat="50.53428" lon="3.69793">
        <ele>61</ele>
        <time>2014-02-16T09:05:32Z</time>
      </trkpt>
      <trkpt lat="50.53431" lon="3.6977">
        <ele>61</ele>
        <time>2014-02-16T09:05:42Z</time>
      </trkpt>
      <trkpt lat="50.53435" lon="3.69744">
        <ele>61</ele>
        <time>2014-02-16T09:05:53Z</time>
      </trkpt>
      <trkpt lat="50.53438" lon="3.6972">
        <ele>61</ele>
        <time>2014-02-16T09:06:04Z</time>
      </trkpt>
      <trkpt lat="50.5344" lon="3.69698">
        <ele>61</ele>
        <time>2014-02-16T09:06:15Z</time>
      </trkpt>
      <trkpt lat="50.53444" lon="3.69673">
        <ele>61</ele>
        <time>2014-02-16T09:06:26Z</time>
      </trkpt>
      <trkpt lat="50.53449" lon="3.69648">
        <ele>60</ele>
        <time>2014-02-16T09:06:37Z</time>
      </trkpt>
      <trkpt lat="50.53454" lon="3.69624">
        <ele>60</ele>
        <time>2014-02-16T09:06:48Z</time>
      </trkpt>
      <trkpt lat="50.53458" lon="3.69598">
        <ele>60</ele>
        <time>2014-02-16T09:07:00Z</time>
      </trkpt>
      <trkpt lat="50.53462" lon="3.69574">
        <ele>60</ele>
        <time>2014-02-16T09:07:11Z</time>
      </trkpt>
      <trkpt lat="50.53465" lon="3.6955">
        <ele>60</ele>
        <time>2014-02-16T09:07:22Z</time>
      </trkpt>
      <trkpt lat="50.53469" lon="3.69524">
        <ele>60</ele>
        <time>2014-02-16T09:07:34Z</time>
      </trkpt>
      <trkpt lat="50.53473" lon="3.69503">
        <ele>60</ele>
        <time>2014-02-16T09:07:44Z</time>
      </trkpt>
      <trkpt lat="50.53478" lon="3.69479">
        <ele>60</ele>
        <time>2014-02-16T09:07:55Z</time>
      </trkpt>
      <trkpt lat="50.53478" lon="3.69453">
        <ele>59</ele>
        <time>2014-02-16T09:08:07Z</time>
      </trkpt>
      <trkpt lat="50.53482" lon="3.69431">
        <ele>59</ele>
        <time>2014-02-16T09:08:17Z</time>
      </trkpt>
      <trkpt lat="50.53486" lon="3.69408">
        <ele>59</ele>
        <time>2014-02-16T09:08:28Z</time>
      </trkpt>
      <trkpt lat="50.53489" lon="3.69384">
        <ele>59</ele>
        <time>2014-02-16T09:08:39Z</time>
      </trkpt>
      <trkpt lat="50.53493" lon="3.69359">
        <ele>59</ele>
        <time>2014-02-16T09:08:50Z</time>
      </trkpt>
      <trkpt lat="50.53496" lon="3.69331">
        <ele>59</ele>
        <time>2014-02-16T09:09:03Z</time>
      </trkpt>
      <trkpt lat="50.53497" lon="3.69311">
        <ele>60</ele>
        <time>2014-02-16T09:09:12Z</time>
      </trkpt>
      <trkpt lat="50.53499" lon="3.69287">
        <ele>60</ele>
        <time>2014-02-16T09:09:23Z</time>
      </trkpt>
      <trkpt lat="50.535" lon="3.69266">
        <ele>60</ele>
        <time>2014-02-16T09:09:34Z</time>
      </trkpt>
      <trkpt lat="50.53501" lon="3.69244">
        <ele>60</ele>
        <time>2014-02-16T09:09:45Z</time>
      </trkpt>
      <trkpt lat="50.53509" lon="3.69215">
        <ele>60</ele>
        <time>2014-02-16T09:09:57Z</time>
      </trkpt>
      <trkpt lat="50.53517" lon="3.69208">
        <ele>60</ele>
        <time>2014-02-16T09:10:08Z</time>
      </trkpt>
      <trkpt lat="50.53529" lon="3.69203">
        <ele>60</ele>
        <time>2014-02-16T09:10:20Z</time>
      </trkpt>
      <trkpt lat="50.53539" lon="3.69197">
        <ele>60</ele>
        <time>2014-02-16T09:10:29Z</time>
      </trkpt>
      <trkpt lat="50.53556" lon="3.69193">
        <ele>60</ele>
        <time>2014-02-16T09:10:42Z</time>
      </trkpt>
      <trkpt lat="50.53569" lon="3.69189">
        <ele>60</ele>
        <time>2014-02-16T09:10:51Z</time>
      </trkpt>
      <trkpt lat="50.53584" lon="3.69186">
        <ele>60</ele>
        <time>2014-02-16T09:11:02Z</time>
      </trkpt>
      <trkpt lat="50.53602" lon="3.69182">
        <ele>61</ele>
        <time>2014-02-16T09:11:13Z</time>
      </trkpt>
      <trkpt lat="50.53615" lon="3.69176">
        <ele>61</ele>
        <time>2014-02-16T09:11:24Z</time>
      </trkpt>
      <trkpt lat="50.5363" lon="3.69171">
        <ele>61</ele>
        <time>2014-02-16T09:11:38Z</time>
      </trkpt>
      <trkpt lat="50.53641" lon="3.69166">
        <ele>61</ele>
        <time>2014-02-16T09:11:46Z</time>
      </trkpt>
      <trkpt lat="50.53653" lon="3.69166">
        <ele>61</ele>
        <time>2014-02-16T09:11:57Z</time>
      </trkpt>
      <trkpt lat="50.53672" lon="3.69164">
        <ele>62</ele>
        <time>2014-02-16T09:12:08Z</time>
      </trkpt>
      <trkpt lat="50.53688" lon="3.69162">
        <ele>61</ele>
        <time>2014-02-16T09:12:20Z</time>
      </trkpt>
      <trkpt lat="50.53704" lon="3.69157">
        <ele>61</ele>
        <time>2014-02-16T09:12:30Z</time>
      </trkpt>
      <trkpt lat="50.53719" lon="3.6916">
        <ele>60</ele>
        <time>2014-02-16T09:12:41Z</time>
      </trkpt>
      <trkpt lat="50.53742" lon="3.69153">
        <ele>60</ele>
        <time>2014-02-16T09:12:58Z</time>
      </trkpt>
      <trkpt lat="50.53749" lon="3.69152">
        <ele>60</ele>
        <time>2014-02-16T09:13:03Z</time>
      </trkpt>
      <trkpt lat="50.53768" lon="3.69152">
        <ele>60</ele>
        <time>2014-02-16T09:13:14Z</time>
      </trkpt>
      <trkpt lat="50.53785" lon="3.69159">
        <ele>60</ele>
        <time>2014-02-16T09:13:25Z</time>
      </trkpt>
      <trkpt lat="50.53803" lon="3.69151">
        <ele>60</ele>
        <time>2014-02-16T09:13:39Z</time>
      </trkpt>
      <trkpt lat="50.53816" lon="3.69153">
        <ele>60</ele>
        <time>2014-02-16T09:13:52Z</time>
      </trkpt>
      <trkpt lat="50.53833" lon="3.69152">
        <ele>60</ele>
        <time>2014-02-16T09:14:03Z</time>
      </trkpt>
      <trkpt lat="50.53842" lon="3.69154">
        <ele>61</ele>
        <time>2014-02-16T09:14:09Z</time>
      </trkpt>
      <trkpt lat="50.53859" lon="3.69152">
        <ele>60</ele>
        <time>2014-02-16T09:14:22Z</time>
      </trkpt>
      <trkpt lat="50.53872" lon="3.69153">
        <ele>60</ele>
        <time>2014-02-16T09:14:32Z</time>
      </trkpt>
      <trkpt lat="50.53886" lon="3.69148">
        <ele>60</ele>
        <time>2014-02-16T09:14:42Z</time>
      </trkpt>
      <trkpt lat="50.539" lon="3.69142">
        <ele>60</ele>
        <time>2014-02-16T09:14:53Z</time>
      </trkpt>
      <trkpt lat="50.53917" lon="3.6914">
        <ele>60</ele>
        <time>2014-02-16T09:15:04Z</time>
      </trkpt>
      <trkpt lat="50.53932" lon="3.69138">
        <ele>60</ele>
        <time>2014-02-16T09:15:15Z</time>
      </trkpt>
      <trkpt lat="50.53949" lon="3.6914">
        <ele>60</ele>
        <time>2014-02-16T09:15:26Z</time>
      </trkpt>
      <trkpt lat="50.53965" lon="3.6914">
        <ele>60</ele>
        <time>2014-02-16T09:15:38Z</time>
      </trkpt>
      <trkpt lat="50.53978" lon="3.6914">
        <ele>60</ele>
        <time>2014-02-16T09:15:48Z</time>
      </trkpt>
      <trkpt lat="50.53995" lon="3.6914">
        <ele>60</ele>
        <time>2014-02-16T09:15:59Z</time>
      </trkpt>
      <trkpt lat="50.54022" lon="3.69143">
        <ele>61</ele>
        <time>2014-02-16T09:16:16Z</time>
      </trkpt>
      <trkpt lat="50.54033" lon="3.69138">
        <ele>61</ele>
        <time>2014-02-16T09:16:25Z</time>
      </trkpt>
      <trkpt lat="50.54043" lon="3.69136">
        <ele>61</ele>
        <time>2014-02-16T09:16:33Z</time>
      </trkpt>
      <trkpt lat="50.54057" lon="3.69134">
        <ele>62</ele>
        <time>2014-02-16T09:16:44Z</time>
      </trkpt>
      <trkpt lat="50.54071" lon="3.69137">
        <ele>62</ele>
        <time>2014-02-16T09:16:55Z</time>
      </trkpt>
      <trkpt lat="50.54085" lon="3.69137">
        <ele>63</ele>
        <time>2014-02-16T09:17:05Z</time>
      </trkpt>
      <trkpt lat="50.54091" lon="3.69156">
        <ele>63</ele>
        <time>2014-02-16T09:17:16Z</time>
      </trkpt>
      <trkpt lat="50.54093" lon="3.6918">
        <ele>63</ele>
        <time>2014-02-16T09:17:27Z</time>
      </trkpt>
      <trkpt lat="50.54094" lon="3.69203">
        <ele>63</ele>
        <time>2014-02-16T09:17:39Z</time>
      </trkpt>
      <trkpt lat="50.54097" lon="3.69223">
        <ele>63</ele>
        <time>2014-02-16T09:17:49Z</time>
      </trkpt>
      <trkpt lat="50.54098" lon="3.69251">
        <ele>63</ele>
        <time>2014-02-16T09:18:00Z</time>
      </trkpt>
      <trkpt lat="50.54103" lon="3.69273">
        <ele>63</ele>
        <time>2014-02-16T09:18:11Z</time>
      </trkpt>
      <trkpt lat="50.54108" lon="3.69305">
        <ele>62</ele>
        <time>2014-02-16T09:18:25Z</time>
      </trkpt>
      <trkpt lat="50.54109" lon="3.69328">
        <ele>62</ele>
        <time>2014-02-16T09:18:34Z</time>
      </trkpt>
      <trkpt lat="50.54113" lon="3.69353">
        <ele>62</ele>
        <time>2014-02-16T09:18:45Z</time>
      </trkpt>
      <trkpt lat="50.54115" lon="3.69376">
        <ele>61</ele>
        <time>2014-02-16T09:18:55Z</time>
      </trkpt>
      <trkpt lat="50.54119" lon="3.69397">
        <ele>61</ele>
        <time>2014-02-16T09:19:06Z</time>
      </trkpt>
      <trkpt lat="50.54123" lon="3.69429">
        <ele>60</ele>
        <time>2014-02-16T09:19:20Z</time>
      </trkpt>
      <trkpt lat="50.54126" lon="3.69447">
        <ele>60</ele>
        <time>2014-02-16T09:19:28Z</time>
      </trkpt>
      <trkpt lat="50.54129" lon="3.6947">
        <ele>60</ele>
        <time>2014-02-16T09:19:39Z</time>
      </trkpt>
      <trkpt lat="50.54132" lon="3.69498">
        <ele>60</ele>
        <time>2014-02-16T09:19:52Z</time>
      </trkpt>
      <trkpt lat="50.54135" lon="3.69519">
        <ele>60</ele>
        <time>2014-02-16T09:20:02Z</time>
      </trkpt>
      <trkpt lat="50.54137" lon="3.69545">
        <ele>59</ele>
        <time>2014-02-16T09:20:13Z</time>
      </trkpt>
      <trkpt lat="50.54141" lon="3.69569">
        <ele>59</ele>
        <time>2014-02-16T09:20:24Z</time>
      </trkpt>
      <trkpt lat="50.54144" lon="3.69601">
        <ele>59</ele>
        <time>2014-02-16T09:20:38Z</time>
      </trkpt>
      <trkpt lat="50.54146" lon="3.69618">
        <ele>59</ele>
        <time>2014-02-16T09:20:46Z</time>
      </trkpt>
      <trkpt lat="50.54149" lon="3.69644">
        <ele>59</ele>
        <time>2014-02-16T09:20:58Z</time>
      </trkpt>
      <trkpt lat="50.54151" lon="3.69667">
        <ele>59</ele>
        <time>2014-02-16T09:21:08Z</time>
      </trkpt>
      <trkpt lat="50.54154" lon="3.69692">
        <ele>59</ele>
        <time>2014-02-16T09:21:19Z</time>
      </trkpt>
      <trkpt lat="50.54158" lon="3.69716">
        <ele>59</ele>
        <time>2014-02-16T09:21:30Z</time>
      </trkpt>
      <trkpt lat="50.5416" lon="3.6974">
        <ele>59</ele>
        <time>2014-02-16T09:21:41Z</time>
      </trkpt>
      <trkpt lat="50.54161" lon="3.69766">
        <ele>59</ele>
        <time>2014-02-16T09:21:53Z</time>
      </trkpt>
      <trkpt lat="50.54164" lon="3.69784">
        <ele>59</ele>
        <time>2014-02-16T09:22:03Z</time>
      </trkpt>
      <trkpt lat="50.54169" lon="3.69813">
        <ele>60</ele>
        <time>2014-02-16T09:22:16Z</time>
      </trkpt>
      <trkpt lat="50.54172" lon="3.69832">
        <ele>59</ele>
        <time>2014-02-16T09:22:25Z</time>
      </trkpt>
      <trkpt lat="50.54175" lon="3.69854">
        <ele>60</ele>
        <time>2014-02-16T09:22:36Z</time>
      </trkpt>
      <trkpt lat="50.54178" lon="3.69877">
        <ele>60</ele>
        <time>2014-02-16T09:22:47Z</time>
      </trkpt>
      <trkpt lat="50.54183" lon="3.699">
        <ele>60</ele>
        <time>2014-02-16T09:22:58Z</time>
      </trkpt>
      <trkpt lat="50.54185" lon="3.69922">
        <ele>60</ele>
        <time>2014-02-16T09:23:09Z</time>
      </trkpt>
      <trkpt lat="50.54188" lon="3.69951">
        <ele>60</ele>
        <time>2014-02-16T09:23:21Z</time>
      </trkpt>
      <trkpt lat="50.54192" lon="3.69975">
        <ele>60</ele>
        <time>2014-02-16T09:23:32Z</time>
      </trkpt>
      <trkpt lat="50.54194" lon="3.69998">
        <ele>60</ele>
        <time>2014-02-16T09:23:43Z</time>
      </trkpt>
      <trkpt lat="50.54198" lon="3.7002">
        <ele>59</ele>
        <time>2014-02-16T09:23:54Z</time>
      </trkpt>
      <trkpt lat="50.54201" lon="3.70045">
        <ele>59</ele>
        <time>2014-02-16T09:24:06Z</time>
      </trkpt>
      <trkpt lat="50.54203" lon="3.70066">
        <ele>59</ele>
        <time>2014-02-16T09:24:16Z</time>
      </trkpt>
      <trkpt lat="50.54205" lon="3.70091">
        <ele>59</ele>
        <time>2014-02-16T09:24:28Z</time>
      </trkpt>
      <trkpt lat="50.54206" lon="3.70112">
        <ele>59</ele>
        <time>2014-02-16T09:24:39Z</time>
      </trkpt>
      <trkpt lat="50.54208" lon="3.70135">
        <ele>58</ele>
        <time>2014-02-16T09:24:50Z</time>
      </trkpt>
      <trkpt lat="50.54209" lon="3.70156">
        <ele>58</ele>
        <time>2014-02-16T09:25:00Z</time>
      </trkpt>
      <trkpt lat="50.54209" lon="3.70182">
        <ele>58</ele>
        <time>2014-02-16T09:25:12Z</time>
      </trkpt>
      <trkpt lat="50.54211" lon="3.70203">
        <ele>58</ele>
        <time>2014-02-16T09:25:22Z</time>
      </trkpt>
      <trkpt lat="50.54211" lon="3.70225">
        <ele>58</ele>
        <time>2014-02-16T09:25:33Z</time>
      </trkpt>
      <trkpt lat="50.54213" lon="3.7025">
        <ele>58</ele>
        <time>2014-02-16T09:25:45Z</time>
      </trkpt>
      <trkpt lat="50.54215" lon="3.70274">
        <ele>57</ele>
        <time>2014-02-16T09:25:56Z</time>
      </trkpt>
      <trkpt lat="50.54216" lon="3.70298">
        <ele>57</ele>
        <time>2014-02-16T09:26:08Z</time>
      </trkpt>
      <trkpt lat="50.54217" lon="3.70323">
        <ele>57</ele>
        <time>2014-02-16T09:26:19Z</time>
      </trkpt>
      <trkpt lat="50.54218" lon="3.70347">
        <ele>57</ele>
        <time>2014-02-16T09:26:30Z</time>
      </trkpt>
      <trkpt lat="50.54219" lon="3.7037">
        <ele>57</ele>
        <time>2014-02-16T09:26:40Z</time>
      </trkpt>
      <trkpt lat="50.54221" lon="3.70392">
        <ele>57</ele>
        <time>2014-02-16T09:26:51Z</time>
      </trkpt>
      <trkpt lat="50.54224" lon="3.70417">
        <ele>57</ele>
        <time>2014-02-16T09:27:03Z</time>
      </trkpt>
      <trkpt lat="50.54224" lon="3.70438">
        <ele>57</ele>
        <time>2014-02-16T09:27:13Z</time>
      </trkpt>
      <trkpt lat="50.54225" lon="3.70463">
        <ele>57</ele>
        <time>2014-02-16T09:27:24Z</time>
      </trkpt>
      <trkpt lat="50.54227" lon="3.70492">
        <ele>57</ele>
        <time>2014-02-16T09:27:37Z</time>
      </trkpt>
      <trkpt lat="50.54226" lon="3.70512">
        <ele>58</ele>
        <time>2014-02-16T09:27:46Z</time>
      </trkpt>
      <trkpt lat="50.54226" lon="3.70551">
        <ele>58</ele>
        <time>2014-02-16T09:28:03Z</time>
      </trkpt>
      <trkpt lat="50.54227" lon="3.70559">
        <ele>59</ele>
        <time>2014-02-16T09:28:08Z</time>
      </trkpt>
      <trkpt lat="50.54228" lon="3.70602">
        <ele>61</ele>
        <time>2014-02-16T09:28:29Z</time>
      </trkpt>
      <trkpt lat="50.54228" lon="3.70604">
        <ele>61</ele>
        <time>2014-02-16T09:28:30Z</time>
      </trkpt>
      <trkpt lat="50.54231" lon="3.70627">
        <ele>62</ele>
        <time>2014-02-16T09:28:42Z</time>
      </trkpt>
      <trkpt lat="50.54236" lon="3.70658">
        <ele>62</ele>
        <time>2014-02-16T09:29:00Z</time>
      </trkpt>
      <trkpt lat="50.54237" lon="3.70665">
        <ele>62</ele>
        <time>2014-02-16T09:29:03Z</time>
      </trkpt>
      <trkpt lat="50.54239" lon="3.7069">
        <ele>63</ele>
        <time>2014-02-16T09:29:14Z</time>
      </trkpt>
      <trkpt lat="50.54245" lon="3.70721">
        <ele>63</ele>
        <time>2014-02-16T09:29:29Z</time>
      </trkpt>
      <trkpt lat="50.54247" lon="3.70744">
        <ele>63</ele>
        <time>2014-02-16T09:29:40Z</time>
      </trkpt>
      <trkpt lat="50.54249" lon="3.70756">
        <ele>63</ele>
        <time>2014-02-16T09:29:47Z</time>
      </trkpt>
      <trkpt lat="50.54247" lon="3.70788">
        <ele>65</ele>
        <time>2014-02-16T09:30:01Z</time>
      </trkpt>
      <trkpt lat="50.54251" lon="3.70809">
        <ele>63</ele>
        <time>2014-02-16T09:30:14Z</time>
      </trkpt>
      <trkpt lat="50.54251" lon="3.7082">
        <ele>63</ele>
        <time>2014-02-16T09:30:20Z</time>
      </trkpt>
      <trkpt lat="50.54251" lon="3.70844">
        <ele>64</ele>
        <time>2014-02-16T09:30:31Z</time>
      </trkpt>
      <trkpt lat="50.54254" lon="3.70856">
        <ele>63</ele>
        <time>2014-02-16T09:30:42Z</time>
      </trkpt>
      <trkpt lat="50.54251" lon="3.70897">
        <ele>62</ele>
        <time>2014-02-16T09:31:03Z</time>
      </trkpt>
      <trkpt lat="50.5425" lon="3.70898">
        <ele>62</ele>
        <time>2014-02-16T09:31:04Z</time>
      </trkpt>
      <trkpt lat="50.54251" lon="3.70924">
        <ele>62</ele>
        <time>2014-02-16T09:31:18Z</time>
      </trkpt>
      <trkpt lat="50.54252" lon="3.70937">
        <ele>61</ele>
        <time>2014-02-16T09:31:26Z</time>
      </trkpt>
      <trkpt lat="50.54261" lon="3.70984">
        <ele>60</ele>
        <time>2014-02-16T09:31:44Z</time>
      </trkpt>
      <trkpt lat="50.54267" lon="3.71012">
        <ele>60</ele>
        <time>2014-02-16T09:31:57Z</time>
      </trkpt>
      <trkpt lat="50.54269" lon="3.71016">
        <ele>60</ele>
        <time>2014-02-16T09:32:00Z</time>
      </trkpt>
      <trkpt lat="50.54276" lon="3.71045">
        <ele>60</ele>
        <time>2014-02-16T09:32:16Z</time>
      </trkpt>
      <trkpt lat="50.5428" lon="3.71063">
        <ele>61</ele>
        <time>2014-02-16T09:32:24Z</time>
      </trkpt>
      <trkpt lat="50.54291" lon="3.71097">
        <ele>62</ele>
        <time>2014-02-16T09:32:41Z</time>
      </trkpt>
      <trkpt lat="50.54295" lon="3.711">
        <ele>62</ele>
        <time>2014-02-16T09:32:44Z</time>
      </trkpt>
      <trkpt lat="50.54305" lon="3.71112">
        <ele>61</ele>
        <time>2014-02-16T09:32:55Z</time>
      </trkpt>
      <trkpt lat="50.54316" lon="3.71124">
        <ele>61</ele>
        <time>2014-02-16T09:33:06Z</time>
      </trkpt>
      <trkpt lat="50.54335" lon="3.71143">
        <ele>59</ele>
        <time>2014-02-16T09:33:24Z</time>
      </trkpt>
      <trkpt lat="50.54339" lon="3.71152">
        <ele>59</ele>
        <time>2014-02-16T09:33:28Z</time>
      </trkpt>
      <trkpt lat="50.54364" lon="3.71182">
        <ele>60</ele>
        <time>2014-02-16T09:33:49Z</time>
      </trkpt>
      <trkpt lat="50.54371" lon="3.71185">
        <ele>60</ele>
        <time>2014-02-16T09:33:55Z</time>
      </trkpt>
      <trkpt lat="50.54377" lon="3.71191">
        <ele>60</ele>
        <time>2014-02-16T09:34:01Z</time>
      </trkpt>
      <trkpt lat="50.5439" lon="3.712">
        <ele>60</ele>
        <time>2014-02-16T09:34:12Z</time>
      </trkpt>
      <trkpt lat="50.54404" lon="3.71224">
        <ele>61</ele>
        <time>2014-02-16T09:34:28Z</time>
      </trkpt>
      <trkpt lat="50.54415" lon="3.71252">
        <ele>61</ele>
        <time>2014-02-16T09:34:44Z</time>
      </trkpt>
      <trkpt lat="50.54418" lon="3.71255">
        <ele>61</ele>
        <time>2014-02-16T09:34:47Z</time>
      </trkpt>
      <trkpt lat="50.5443" lon="3.71264">
        <ele>60</ele>
        <time>2014-02-16T09:34:56Z</time>
      </trkpt>
      <trkpt lat="50.54438" lon="3.71282">
        <ele>60</ele>
        <time>2014-02-16T09:35:08Z</time>
      </trkpt>
      <trkpt lat="50.5445" lon="3.71308">
        <ele>60</ele>
        <time>2014-02-16T09:35:23Z</time>
      </trkpt>
      <trkpt lat="50.54468" lon="3.71333">
        <ele>60</ele>
        <time>2014-02-16T09:35:38Z</time>
      </trkpt>
      <trkpt lat="50.5447" lon="3.71337">
        <ele>60</ele>
        <time>2014-02-16T09:35:40Z</time>
      </trkpt>
      <trkpt lat="50.54491" lon="3.71373">
        <ele>60</ele>
        <time>2014-02-16T09:35:59Z</time>
      </trkpt>
      <trkpt lat="50.54499" lon="3.71389">
        <ele>60</ele>
        <time>2014-02-16T09:36:07Z</time>
      </trkpt>
      <trkpt lat="50.54505" lon="3.71399">
        <ele>58</ele>
        <time>2014-02-16T09:36:14Z</time>
      </trkpt>
      <trkpt lat="50.54516" lon="3.71413">
        <ele>58</ele>
        <time>2014-02-16T09:36:24Z</time>
      </trkpt>
      <trkpt lat="50.5453" lon="3.71427">
        <ele>59</ele>
        <time>2014-02-16T09:36:35Z</time>
      </trkpt>
      <trkpt lat="50.54541" lon="3.7144">
        <ele>59</ele>
        <time>2014-02-16T09:36:46Z</time>
      </trkpt>
      <trkpt lat="50.54549" lon="3.71455">
        <ele>59</ele>
        <time>2014-02-16T09:36:57Z</time>
      </trkpt>
      <trkpt lat="50.54565" lon="3.71472">
        <ele>58</ele>
        <time>2014-02-16T09:37:09Z</time>
      </trkpt>
      <trkpt lat="50.54576" lon="3.71483">
        <ele>58</ele>
        <time>2014-02-16T09:37:19Z</time>
      </trkpt>
      <trkpt lat="50.5459" lon="3.71508">
        <ele>57</ele>
        <time>2014-02-16T09:37:31Z</time>
      </trkpt>
      <trkpt lat="50.54604" lon="3.71518">
        <ele>57</ele>
        <time>2014-02-16T09:37:41Z</time>
      </trkpt>
      <trkpt lat="50.54617" lon="3.71533">
        <ele>57</ele>
        <time>2014-02-16T09:37:52Z</time>
      </trkpt>
      <trkpt lat="50.54631" lon="3.71546">
        <ele>57</ele>
        <time>2014-02-16T09:38:04Z</time>
      </trkpt>
      <trkpt lat="50.54645" lon="3.71557">
        <ele>57</ele>
        <time>2014-02-16T09:38:14Z</time>
      </trkpt>
      <trkpt lat="50.54655" lon="3.71574">
        <ele>57</ele>
        <time>2014-02-16T09:38:25Z</time>
      </trkpt>
      <trkpt lat="50.54669" lon="3.71589">
        <ele>57</ele>
        <time>2014-02-16T09:38:37Z</time>
      </trkpt>
      <trkpt lat="50.54679" lon="3.71601">
        <ele>57</ele>
        <time>2014-02-16T09:38:47Z</time>
      </trkpt>
      <trkpt lat="50.54693" lon="3.71615">
        <ele>58</ele>
        <time>2014-02-16T09:38:59Z</time>
      </trkpt>
      <trkpt lat="50.54705" lon="3.71629">
        <ele>58</ele>
        <time>2014-02-16T09:39:09Z</time>
      </trkpt>
      <trkpt lat="50.54721" lon="3.7164">
        <ele>58</ele>
        <time>2014-02-16T09:39:21Z</time>
      </trkpt>
      <trkpt lat="50.54731" lon="3.71657">
        <ele>58</ele>
        <time>2014-02-16T09:39:31Z</time>
      </trkpt>
      <trkpt lat="50.54738" lon="3.71678">
        <ele>58</ele>
        <time>2014-02-16T09:39:42Z</time>
      </trkpt>
      <trkpt lat="50.54749" lon="3.71697">
        <ele>59</ele>
        <time>2014-02-16T09:39:54Z</time>
      </trkpt>
      <trkpt lat="50.54759" lon="3.7171">
        <ele>59</ele>
        <time>2014-02-16T09:40:04Z</time>
      </trkpt>
      <trkpt lat="50.54769" lon="3.71723">
        <ele>59</ele>
        <time>2014-02-16T09:40:15Z</time>
      </trkpt>
      <trkpt lat="50.54786" lon="3.71733">
        <ele>59</ele>
        <time>2014-02-16T09:40:27Z</time>
      </trkpt>
      <trkpt lat="50.54801" lon="3.71738">
        <ele>59</ele>
        <time>2014-02-16T09:40:37Z</time>
      </trkpt>
      <trkpt lat="50.5482" lon="3.71772">
        <ele>59</ele>
        <time>2014-02-16T09:40:58Z</time>
      </trkpt>
      <trkpt lat="50.54822" lon="3.71776">
        <ele>59</ele>
        <time>2014-02-16T09:41:00Z</time>
      </trkpt>
      <trkpt lat="50.54838" lon="3.718">
        <ele>59</ele>
        <time>2014-02-16T09:41:15Z</time>
      </trkpt>
      <trkpt lat="50.54852" lon="3.71822">
        <ele>59</ele>
        <time>2014-02-16T09:41:29Z</time>
      </trkpt>
      <trkpt lat="50.54857" lon="3.71825">
        <ele>59</ele>
        <time>2014-02-16T09:41:32Z</time>
      </trkpt>
      <trkpt lat="50.5487" lon="3.71843">
        <ele>59</ele>
        <time>2014-02-16T09:41:44Z</time>
      </trkpt>
      <trkpt lat="50.54883" lon="3.71871">
        <ele>59</ele>
        <time>2014-02-16T09:42:00Z</time>
      </trkpt>
      <trkpt lat="50.54886" lon="3.71884">
        <ele>59</ele>
        <time>2014-02-16T09:42:05Z</time>
      </trkpt>
      <trkpt lat="50.54897" lon="3.71902">
        <ele>59</ele>
        <time>2014-02-16T09:42:16Z</time>
      </trkpt>
      <trkpt lat="50.5491" lon="3.71919">
        <ele>59</ele>
        <time>2014-02-16T09:42:28Z</time>
      </trkpt>
      <trkpt lat="50.5492" lon="3.71931">
        <ele>59</ele>
        <time>2014-02-16T09:42:38Z</time>
      </trkpt>
      <trkpt lat="50.54934" lon="3.71938">
        <ele>59</ele>
        <time>2014-02-16T09:42:49Z</time>
      </trkpt>
      <trkpt lat="50.54949" lon="3.71944">
        <ele>59</ele>
        <time>2014-02-16T09:43:00Z</time>
      </trkpt>
      <trkpt lat="50.54968" lon="3.71946">
        <ele>59</ele>
        <time>2014-02-16T09:43:11Z</time>
      </trkpt>
      <trkpt lat="50.54978" lon="3.71962">
        <ele>59</ele>
        <time>2014-02-16T09:43:22Z</time>
      </trkpt>
      <trkpt lat="50.54995" lon="3.71979">
        <ele>59</ele>
        <time>2014-02-16T09:43:37Z</time>
      </trkpt>
      <trkpt lat="50.55003" lon="3.71985">
        <ele>59</ele>
        <time>2014-02-16T09:43:44Z</time>
      </trkpt>
      <trkpt lat="50.55018" lon="3.71997">
        <ele>59</ele>
        <time>2014-02-16T09:43:55Z</time>
      </trkpt>
      <trkpt lat="50.5503" lon="3.72009">
        <ele>59</ele>
        <time>2014-02-16T09:44:06Z</time>
      </trkpt>
      <trkpt lat="50.55045" lon="3.72019">
        <ele>59</ele>
        <time>2014-02-16T09:44:17Z</time>
      </trkpt>
      <trkpt lat="50.5506" lon="3.72028">
        <ele>59</ele>
        <time>2014-02-16T09:44:29Z</time>
      </trkpt>
      <trkpt lat="50.55073" lon="3.72038">
        <ele>59</ele>
        <time>2014-02-16T09:44:39Z</time>
      </trkpt>
      <trkpt lat="50.55088" lon="3.72043">
        <ele>59</ele>
        <time>2014-02-16T09:44:50Z</time>
      </trkpt>
      <trkpt lat="50.55105" lon="3.72053">
        <ele>59</ele>
        <time>2014-02-16T09:45:02Z</time>
      </trkpt>
      <trkpt lat="50.55119" lon="3.72067">
        <ele>59</ele>
        <time>2014-02-16T09:45:13Z</time>
      </trkpt>
      <trkpt lat="50.55132" lon="3.7208">
        <ele>59</ele>
        <time>2014-02-16T09:45:23Z</time>
      </trkpt>
      <trkpt lat="50.55144" lon="3.72093">
        <ele>59</ele>
        <time>2014-02-16T09:45:34Z</time>
      </trkpt>
      <trkpt lat="50.55156" lon="3.72107">
        <ele>59</ele>
        <time>2014-02-16T09:45:45Z</time>
      </trkpt>
      <trkpt lat="50.5517" lon="3.7212">
        <ele>59</ele>
        <time>2014-02-16T09:45:56Z</time>
      </trkpt>
      <trkpt lat="50.55183" lon="3.72134">
        <ele>58</ele>
        <time>2014-02-16T09:46:07Z</time>
      </trkpt>
      <trkpt lat="50.55196" lon="3.72145">
        <ele>58</ele>
        <time>2014-02-16T09:46:18Z</time>
      </trkpt>
      <trkpt lat="50.55214" lon="3.72157">
        <ele>58</ele>
        <time>2014-02-16T09:46:31Z</time>
      </trkpt>
      <trkpt lat="50.55227" lon="3.7217">
        <ele>58</ele>
        <time>2014-02-16T09:46:41Z</time>
      </trkpt>
      <trkpt lat="50.5524" lon="3.72181">
        <ele>58</ele>
        <time>2014-02-16T09:46:51Z</time>
      </trkpt>
      <trkpt lat="50.55252" lon="3.72194">
        <ele>58</ele>
        <time>2014-02-16T09:47:02Z</time>
      </trkpt>
      <trkpt lat="50.55266" lon="3.72206">
        <ele>58</ele>
        <time>2014-02-16T09:47:13Z</time>
      </trkpt>
      <trkpt lat="50.55279" lon="3.72219">
        <ele>58</ele>
        <time>2014-02-16T09:47:24Z</time>
      </trkpt>
      <trkpt lat="50.55292" lon="3.72231">
        <ele>58</ele>
        <time>2014-02-16T09:47:35Z</time>
      </trkpt>
      <trkpt lat="50.55304" lon="3.72241">
        <ele>58</ele>
        <time>2014-02-16T09:47:47Z</time>
      </trkpt>
      <trkpt lat="50.55317" lon="3.72255">
        <ele>58</ele>
        <time>2014-02-16T09:47:59Z</time>
      </trkpt>
      <trkpt lat="50.55337" lon="3.72269">
        <ele>57</ele>
        <time>2014-02-16T09:48:14Z</time>
      </trkpt>
      <trkpt lat="50.55342" lon="3.72286">
        <ele>57</ele>
        <time>2014-02-16T09:48:22Z</time>
      </trkpt>
      <trkpt lat="50.55348" lon="3.72315">
        <ele>58</ele>
        <time>2014-02-16T09:48:37Z</time>
      </trkpt>
      <trkpt lat="50.55346" lon="3.72328">
        <ele>58</ele>
        <time>2014-02-16T09:48:43Z</time>
      </trkpt>
      <trkpt lat="50.5534" lon="3.7235">
        <ele>58</ele>
        <time>2014-02-16T09:48:54Z</time>
      </trkpt>
      <trkpt lat="50.55339" lon="3.72376">
        <ele>57</ele>
        <time>2014-02-16T09:49:05Z</time>
      </trkpt>
      <trkpt lat="50.55337" lon="3.72407">
        <ele>58</ele>
        <time>2014-02-16T09:49:19Z</time>
      </trkpt>
      <trkpt lat="50.55336" lon="3.72429">
        <ele>57</ele>
        <time>2014-02-16T09:49:29Z</time>
      </trkpt>
      <trkpt lat="50.55334" lon="3.72448">
        <ele>56</ele>
        <time>2014-02-16T09:49:38Z</time>
      </trkpt>
      <trkpt lat="50.55331" lon="3.72473">
        <ele>58</ele>
        <time>2014-02-16T09:49:50Z</time>
      </trkpt>
      <trkpt lat="50.55331" lon="3.72496">
        <ele>56</ele>
        <time>2014-02-16T09:50:01Z</time>
      </trkpt>
      <trkpt lat="50.5533" lon="3.72518">
        <ele>57</ele>
        <time>2014-02-16T09:50:11Z</time>
      </trkpt>
      <trkpt lat="50.55332" lon="3.72543">
        <ele>58</ele>
        <time>2014-02-16T09:50:23Z</time>
      </trkpt>
      <trkpt lat="50.55331" lon="3.72564">
        <ele>57</ele>
        <time>2014-02-16T09:50:33Z</time>
      </trkpt>
      <trkpt lat="50.55327" lon="3.72587">
        <ele>57</ele>
        <time>2014-02-16T09:50:44Z</time>
      </trkpt>
      <trkpt lat="50.55325" lon="3.72613">
        <ele>58</ele>
        <time>2014-02-16T09:50:56Z</time>
      </trkpt>
      <trkpt lat="50.55323" lon="3.72622">
        <ele>58</ele>
        <time>2014-02-16T09:51:06Z</time>
      </trkpt>
      <trkpt lat="50.55321" lon="3.72649">
        <ele>57</ele>
        <time>2014-02-16T09:51:17Z</time>
      </trkpt>
      <trkpt lat="50.55314" lon="3.72685">
        <ele>57</ele>
        <time>2014-02-16T09:51:29Z</time>
      </trkpt>
      <trkpt lat="50.55314" lon="3.72692">
        <ele>57</ele>
        <time>2014-02-16T09:51:40Z</time>
      </trkpt>
      <trkpt lat="50.55307" lon="3.72732">
        <ele>57</ele>
        <time>2014-02-16T09:51:53Z</time>
      </trkpt>
      <trkpt lat="50.55307" lon="3.72756">
        <ele>56</ele>
        <time>2014-02-16T09:52:04Z</time>
      </trkpt>
      <trkpt lat="50.55306" lon="3.72776">
        <ele>56</ele>
        <time>2014-02-16T09:52:13Z</time>
      </trkpt>
      <trkpt lat="50.55308" lon="3.72799">
        <ele>56</ele>
        <time>2014-02-16T09:52:23Z</time>
      </trkpt>
      <trkpt lat="50.55307" lon="3.7282">
        <ele>55</ele>
        <time>2014-02-16T09:52:34Z</time>
      </trkpt>
      <trkpt lat="50.55299" lon="3.72851">
        <ele>55</ele>
        <time>2014-02-16T09:52:48Z</time>
      </trkpt>
      <trkpt lat="50.55293" lon="3.72861">
        <ele>55</ele>
        <time>2014-02-16T09:52:56Z</time>
      </trkpt>
      <trkpt lat="50.55282" lon="3.72877">
        <ele>55</ele>
        <time>2014-02-16T09:53:07Z</time>
      </trkpt>
      <trkpt lat="50.55263" lon="3.72912">
        <ele>55</ele>
        <time>2014-02-16T09:53:28Z</time>
      </trkpt>
      <trkpt lat="50.55262" lon="3.72914">
        <ele>56</ele>
        <time>2014-02-16T09:53:29Z</time>
      </trkpt>
      <trkpt lat="50.55252" lon="3.7294">
        <ele>54</ele>
        <time>2014-02-16T09:53:40Z</time>
      </trkpt>
      <trkpt lat="50.55247" lon="3.72975">
        <ele>55</ele>
        <time>2014-02-16T09:53:56Z</time>
      </trkpt>
      <trkpt lat="50.55247" lon="3.73002">
        <ele>53</ele>
        <time>2014-02-16T09:54:11Z</time>
      </trkpt>
      <trkpt lat="50.55245" lon="3.73006">
        <ele>53</ele>
        <time>2014-02-16T09:54:16Z</time>
      </trkpt>
      <trkpt lat="50.55248" lon="3.73018">
        <ele>54</ele>
        <time>2014-02-16T09:54:24Z</time>
      </trkpt>
      <trkpt lat="50.55254" lon="3.73043">
        <ele>52</ele>
        <time>2014-02-16T09:54:38Z</time>
      </trkpt>
      <trkpt lat="50.55259" lon="3.7306">
        <ele>52</ele>
        <time>2014-02-16T09:54:47Z</time>
      </trkpt>
      <trkpt lat="50.55258" lon="3.73093">
        <ele>53</ele>
        <time>2014-02-16T09:55:06Z</time>
      </trkpt>
      <trkpt lat="50.55257" lon="3.73098">
        <ele>52</ele>
        <time>2014-02-16T09:55:08Z</time>
      </trkpt>
      <trkpt lat="50.55235" lon="3.73154">
        <ele>53</ele>
        <time>2014-02-16T09:55:28Z</time>
      </trkpt>
      <trkpt lat="50.55234" lon="3.73159">
        <ele>53</ele>
        <time>2014-02-16T09:55:30Z</time>
      </trkpt>
      <trkpt lat="50.55225" lon="3.73195">
        <ele>53</ele>
        <time>2014-02-16T09:55:46Z</time>
      </trkpt>
      <trkpt lat="50.55212" lon="3.7322">
        <ele>53</ele>
        <time>2014-02-16T09:55:58Z</time>
      </trkpt>
      <trkpt lat="50.55199" lon="3.73241">
        <ele>54</ele>
        <time>2014-02-16T09:56:09Z</time>
      </trkpt>
      <trkpt lat="50.55194" lon="3.7325">
        <ele>54</ele>
        <time>2014-02-16T09:56:14Z</time>
      </trkpt>
      <trkpt lat="50.55188" lon="3.73279">
        <ele>54</ele>
        <time>2014-02-16T09:56:32Z</time>
      </trkpt>
      <trkpt lat="50.55182" lon="3.73289">
        <ele>54</ele>
        <time>2014-02-16T09:56:38Z</time>
      </trkpt>
      <trkpt lat="50.5517" lon="3.733">
        <ele>54</ele>
        <time>2014-02-16T09:56:47Z</time>
      </trkpt>
      <trkpt lat="50.55147" lon="3.73294">
        <ele>56</ele>
        <time>2014-02-16T09:56:59Z</time>
      </trkpt>
      <trkpt lat="50.55131" lon="3.73285">
        <ele>56</ele>
        <time>2014-02-16T09:57:09Z</time>
      </trkpt>
      <trkpt lat="50.55117" lon="3.73286">
        <ele>56</ele>
        <time>2014-02-16T09:57:20Z</time>
      </trkpt>
      <trkpt lat="50.55095" lon="3.73281">
        <ele>57</ele>
        <time>2014-02-16T09:57:39Z</time>
      </trkpt>
      <trkpt lat="50.55088" lon="3.73278">
        <ele>57</ele>
        <time>2014-02-16T09:57:44Z</time>
      </trkpt>
      <trkpt lat="50.55076" lon="3.7327">
        <ele>57</ele>
        <time>2014-02-16T09:57:53Z</time>
      </trkpt>
      <trkpt lat="50.5506" lon="3.73261">
        <ele>57</ele>
        <time>2014-02-16T09:58:04Z</time>
      </trkpt>
      <trkpt lat="50.55043" lon="3.73255">
        <ele>57</ele>
        <time>2014-02-16T09:58:16Z</time>
      </trkpt>
      <trkpt lat="50.55028" lon="3.73259">
        <ele>57</ele>
        <time>2014-02-16T09:58:26Z</time>
      </trkpt>
      <trkpt lat="50.55006" lon="3.73262">
        <ele>57</ele>
        <time>2014-02-16T09:58:43Z</time>
      </trkpt>
      <trkpt lat="50.55002" lon="3.73268">
        <ele>57</ele>
        <time>2014-02-16T09:58:48Z</time>
      </trkpt>
      <trkpt lat="50.54995" lon="3.73281">
        <ele>58</ele>
        <time>2014-02-16T09:58:59Z</time>
      </trkpt>
      <trkpt lat="50.5499" lon="3.73299">
        <ele>58</ele>
        <time>2014-02-16T09:59:10Z</time>
      </trkpt>
      <trkpt lat="50.54989" lon="3.73319">
        <ele>58</ele>
        <time>2014-02-16T09:59:22Z</time>
      </trkpt>
      <trkpt lat="50.5498" lon="3.73337">
        <ele>59</ele>
        <time>2014-02-16T09:59:32Z</time>
      </trkpt>
      <trkpt lat="50.54978" lon="3.73355">
        <ele>59</ele>
        <time>2014-02-16T09:59:43Z</time>
      </trkpt>
      <trkpt lat="50.54967" lon="3.73384">
        <ele>59</ele>
        <time>2014-02-16T09:59:59Z</time>
      </trkpt>
      <trkpt lat="50.5496" lon="3.73399">
        <ele>59</ele>
        <time>2014-02-16T10:00:08Z</time>
      </trkpt>
      <trkpt lat="50.54958" lon="3.73411">
        <ele>59</ele>
        <time>2014-02-16T10:00:16Z</time>
      </trkpt>
      <trkpt lat="50.5495" lon="3.73433">
        <ele>59</ele>
        <time>2014-02-16T10:00:27Z</time>
      </trkpt>
      <trkpt lat="50.54936" lon="3.73461">
        <ele>60</ele>
        <time>2014-02-16T10:00:44Z</time>
      </trkpt>
      <trkpt lat="50.54931" lon="3.7347">
        <ele>60</ele>
        <time>2014-02-16T10:00:49Z</time>
      </trkpt>
      <trkpt lat="50.54913" lon="3.73502">
        <ele>60</ele>
        <time>2014-02-16T10:01:07Z</time>
      </trkpt>
      <trkpt lat="50.54909" lon="3.73513">
        <ele>60</ele>
        <time>2014-02-16T10:01:13Z</time>
      </trkpt>
      <trkpt lat="50.54881" lon="3.73537">
        <ele>60</ele>
        <time>2014-02-16T10:01:30Z</time>
      </trkpt>
      <trkpt lat="50.54877" lon="3.73541">
        <ele>60</ele>
        <time>2014-02-16T10:01:33Z</time>
      </trkpt>
      <trkpt lat="50.54861" lon="3.73549">
        <ele>60</ele>
        <time>2014-02-16T10:01:44Z</time>
      </trkpt>
      <trkpt lat="50.54845" lon="3.73559">
        <ele>60</ele>
        <time>2014-02-16T10:01:55Z</time>
      </trkpt>
      <trkpt lat="50.5483" lon="3.73568">
        <ele>60</ele>
        <time>2014-02-16T10:02:06Z</time>
      </trkpt>
      <trkpt lat="50.54816" lon="3.73577">
        <ele>60</ele>
        <time>2014-02-16T10:02:16Z</time>
      </trkpt>
      <trkpt lat="50.54798" lon="3.73589">
        <ele>61</ele>
        <time>2014-02-16T10:02:31Z</time>
      </trkpt>
      <trkpt lat="50.54786" lon="3.73595">
        <ele>61</ele>
        <time>2014-02-16T10:02:40Z</time>
      </trkpt>
      <trkpt lat="50.54772" lon="3.73602">
        <ele>61</ele>
        <time>2014-02-16T10:02:52Z</time>
      </trkpt>
      <trkpt lat="50.54758" lon="3.73612">
        <ele>61</ele>
        <time>2014-02-16T10:03:03Z</time>
      </trkpt>
      <trkpt lat="50.5474" lon="3.7362">
        <ele>61</ele>
        <time>2014-02-16T10:03:15Z</time>
      </trkpt>
      <trkpt lat="50.54731" lon="3.73627">
        <ele>62</ele>
        <time>2014-02-16T10:03:23Z</time>
      </trkpt>
      <trkpt lat="50.5472" lon="3.73637">
        <ele>62</ele>
        <time>2014-02-16T10:03:36Z</time>
      </trkpt>
      <trkpt lat="50.54707" lon="3.73648">
        <ele>62</ele>
        <time>2014-02-16T10:03:48Z</time>
      </trkpt>
      <trkpt lat="50.54694" lon="3.73661">
        <ele>62</ele>
        <time>2014-02-16T10:03:58Z</time>
      </trkpt>
      <trkpt lat="50.54682" lon="3.73671">
        <ele>62</ele>
        <time>2014-02-16T10:04:09Z</time>
      </trkpt>
      <trkpt lat="50.5467" lon="3.73677">
        <ele>62</ele>
        <time>2014-02-16T10:04:19Z</time>
      </trkpt>
      <trkpt lat="50.54658" lon="3.73687">
        <ele>62</ele>
        <time>2014-02-16T10:04:31Z</time>
      </trkpt>
      <trkpt lat="50.54665" lon="3.73708">
        <ele>62</ele>
        <time>2014-02-16T10:04:41Z</time>
      </trkpt>
    </trkseg>
  </trk>
</gpx>